Terminal Aerodrome Forecast
Issued by NWS Sterling, VA

Current Version | Previous Version | Graphics & Text | Print | Product List | Glossary On
Versions: 1 2 3 4 5 6 7 8 9 10 11 12 13 14 15 16 17 18 19 20 21 22 23 24 25 26 27 28 29 30 31
000
FTUS41 KLWX 310853 AAA
TAFIAD
TAF AMD
KIAD 310853Z 3109/0112 19004KT P6SM SCT080
     FM311100 19006KT P6SM BKN080
     FM311300 20008KT P6SM SCT080
     FM312300 19008KT P6SM BKN070
     FM011000 18005KT 3SM BR BKN070=

USA.gov is the U.S. government's official web portal to all federal, state and local government web resources and services.